Time;durP1;ratioP1;P1;durP2;ratioP2;P2;SDS_P1;SDS_P2;PMS_P1;PMS_P2;Temp;Humidity;BMP_temperature;BMP_pressure;BME280_temperature;BME280_humidity;BME280_pressure;Samples;Min_cycle;Max_cycle;Signal;HPM_P1;HPM_P2
2022/04/02 07:59:00;;;;;;;5.03;3.63;;;;;;;3.52;59.53;101682.25;5279658;28;20406;-66
2022/04/02 08:01:31;;;;;;;6.70;4.10;;;;;;;3.45;59.02;101687.78;5278867;28;20151;-67
2022/04/02 08:04:06;;;;;;;6.63;3.92;;;;;;;3.58;60.17;101686.84;5277849;28;20020;-67
2022/04/02 08:06:39;;;;;;;9.32;7.07;;;;;;;3.80;61.28;101681.81;5261937;28;20036;-68
2022/04/02 08:09:11;;;;;;;4.88;3.25;;;;;;;4.06;62.89;101689.78;5275295;28;20024;-68
2022/04/02 08:11:45;;;;;;;5.72;4.25;;;;;;;4.10;62.30;101680.06;5276012;28;20078;-69
2022/04/02 08:14:22;;;;;;;3.50;3.17;;;;;;;4.53;64.63;101689.34;5285153;28;20041;-69
2022/04/02 08:16:54;;;;;;;11.30;6.00;;;;;;;4.38;60.66;101684.22;5276745;28;20074;-67
2022/04/02 08:19:26;;;;;;;6.05;4.53;;;;;;;4.56;62.06;101684.22;5294129;28;20119;-68
2022/04/02 08:21:57;;;;;;;10.93;5.90;;;;;;;4.60;60.09;101690.06;5272598;28;20018;-68
2022/04/02 08:24:29;;;;;;;6.25;3.30;;;;;;;5.03;63.15;101693.78;5265677;28;20037;-69
2022/04/02 08:27:03;;;;;;;6.38;4.22;;;;;;;4.67;58.95;101695.50;5259104;28;20021;-70
2022/04/02 08:29:54;;;;;;;5.38;3.60;;;;;;;4.78;59.64;101703.84;5258197;28;20392;-70
2022/04/02 08:32:37;;;;;;;5.30;3.65;;;;;;;4.85;59.13;101702.91;5259044;28;20021;-67
2022/04/02 08:35:13;;;;;;;5.68;3.63;;;;;;;5.28;63.28;101697.22;5267223;28;20028;-69
2022/04/02 08:38:12;;;;;;;4.72;3.80;;;;;;;5.24;62.71;101698.78;5278465;28;20029;-69
2022/04/02 08:41:02;;;;;;;5.10;3.65;;;;;;;5.14;59.65;101707.59;5263375;28;20381;-67
2022/04/02 08:43:55;;;;;;;5.75;3.78;;;;;;;5.28;61.95;101712.91;5258040;28;20278;-68
2022/04/02 08:46:41;;;;;;;4.35;3.60;;;;;;;5.71;63.58;101712.69;5272427;28;20028;-68
2022/04/02 08:49:49;;;;;;;5.63;4.00;;;;;;;5.44;58.29;101718.59;5279146;28;20033;-71
2022/04/02 08:52:40;;;;;;;4.10;3.65;;;;;;;5.42;59.01;101719.91;5257423;28;20048;-70
2022/04/02 08:55:16;;;;;;;7.70;3.90;;;;;;;5.64;63.77;101723.78;5256723;28;20695;-69
2022/04/02 08:57:53;;;;;;;5.40;3.97;;;;;;;5.43;59.16;101729.81;5268443;28;20049;-69
2022/04/02 09:00:27;;;;;;;8.45;3.88;;;;;;;5.27;57.79;101730.50;5257704;28;20105;-70
2022/04/02 09:03:32;;;;;;;6.95;3.95;;;;;;;5.25;58.43;101738.13;5258164;28;20033;-71
2022/04/02 09:06:28;;;;;;;5.50;3.88;;;;;;;5.62;63.27;101742.47;5257741;28;20120;-71
2022/04/02 09:09:30;;;;;;;5.10;4.22;;;;;;;5.31;60.81;101745.44;5251140;28;20036;-71
2022/04/02 09:12:34;;;;;;;7.25;3.92;;;;;;;5.63;62.16;101744.13;5244744;28;20045;-68
2022/04/02 09:15:17;;;;;;;7.90;3.80;;;;;;;5.77;63.98;101749.41;5254579;28;20532;-69
2022/04/02 09:18:02;;;;;;;5.53;3.58;;;;;;;5.72;60.88;101757.53;5263711;28;20033;-68
2022/04/02 09:20:54;;;;;;;6.05;4.25;;;;;;;5.69;59.35;101752.53;5259391;28;20029;-70
2022/04/02 09:23:43;;;;;;;5.18;3.70;;;;;;;5.71;58.80;101755.88;5256535;28;20025;-72
2022/04/02 09:26:35;;;;;;;6.30;4.85;;;;;;;6.18;62.90;101764.25;5262183;28;20028;-68
2022/04/02 09:29:14;;;;;;;9.48;5.47;;;;;;;6.11;61.66;101761.63;5262427;28;20025;-67
2022/04/02 09:32:13;;;;;;;6.07;5.22;;;;;;;5.94;58.61;101766.97;5255924;28;20477;-67
2022/04/02 09:34:56;;;;;;;10.07;4.78;;;;;;;5.99;58.81;101764.34;5258430;28;20054;-68
2022/04/02 09:37:52;;;;;;;8.80;4.43;;;;;;;6.30;62.12;101770.63;5264431;28;20433;-68
2022/04/02 09:40:48;;;;;;;8.82;4.60;;;;;;;5.81;56.54;101761.66;5263499;28;20472;-69
2022/04/02 09:43:31;;;;;;;22.30;18.33;;;;;;;5.61;56.49;101771.03;5247866;28;20055;-69
2022/04/02 09:46:39;;;;;;;9.70;6.20;;;;;;;5.39;56.86;101769.88;5251997;28;20064;-67
2022/04/02 09:49:34;;;;;;;5.80;4.35;;;;;;;5.25;57.01;101766.47;5249696;28;20116;-67
2022/04/02 09:52:17;;;;;;;6.82;5.78;;;;;;;5.22;57.22;101772.44;5258603;28;20029;-68
2022/04/02 09:55:03;;;;;;;10.90;5.18;;;;;;;5.21;56.04;101768.81;5248808;28;20076;-68
2022/04/02 09:58:05;;;;;;;7.70;4.93;;;;;;;5.31;56.11;101773.78;5242889;28;20053;-66
2022/04/02 10:01:11;;;;;;;10.23;5.80;;;;;;;5.44;55.20;101762.63;5250296;28;20461;-66
2022/04/02 10:03:53;;;;;;;9.00;8.18;;;;;;;5.61;56.42;101771.03;5249651;28;20045;-65
2022/04/02 10:06:35;;;;;;;6.40;4.25;;;;;;;5.45;55.56;101775.28;5250796;28;20112;-67
2022/04/02 10:09:13;;;;;;;7.47;3.65;;;;;;;5.64;53.12;101769.72;5242595;28;20041;-66
2022/04/02 10:11:52;;;;;;;5.90;4.38;;;;;;;5.70;55.03;101766.06;5244922;28;20029;-66
2022/04/02 10:14:26;;;;;;;8.85;5.50;;;;;;;5.84;54.59;101761.19;5262333;28;20098;-67
2022/04/02 10:17:02;;;;;;;8.27;4.85;;;;;;;5.99;55.44;101766.28;5250915;28;20029;-69
2022/04/02 10:19:37;;;;;;;9.57;4.95;;;;;;;6.28;55.24;101757.06;5263121;28;20017;-70
2022/04/02 10:22:09;;;;;;;6.97;4.28;;;;;;;6.47;55.36;101754.22;5248818;28;20048;-70
2022/04/02 10:24:48;;;;;;;6.80;4.97;;;;;;;6.60;54.70;101745.69;5242969;28;20132;-70
2022/04/02 10:27:34;;;;;;;10.43;5.18;;;;;;;6.52;52.92;101741.41;5242784;28;20599;-69
2022/04/02 10:30:13;;;;;;;;;;;;;;;6.54;52.69;101741.13;5241676;28;20067;-70
2022/04/02 10:33:26;;;;;;;4.95;3.88;;;;;;;6.16;52.97;101747.13;5242366;28;19913;-69
2022/04/02 10:35:56;;;;;;;4.93;3.83;;;;;;;6.05;52.42;101751.53;5241442;28;20033;-69
2022/04/02 10:38:37;;;;;;;6.10;3.85;;;;;;;5.86;53.01;101751.59;5242404;28;20048;-68
2022/04/02 10:41:14;;;;;;;10.35;4.00;;;;;;;5.82;57.33;101752.31;5260861;28;20025;-68
2022/04/02 10:43:59;;;;;;;12.43;3.95;;;;;;;5.95;61.26;101760.38;5262445;28;20053;-69
2022/04/02 10:46:32;;;;;;;10.73;4.38;;;;;;;5.61;60.01;101761.94;5261020;28;20025;-68
2022/04/02 10:49:08;;;;;;;5.93;4.22;;;;;;;5.61;59.32;101762.78;5252602;28;20029;-66
2022/04/02 10:51:41;;;;;;;;;;;;;;;5.84;59.18;101759.25;5263163;28;20021;-67
2022/04/02 10:54:16;;;;;;;7.55;4.38;;;;;;;5.63;60.02;101759.81;5259789;28;19920;-67
2022/04/02 10:56:48;;;;;;;6.47;4.57;;;;;;;5.43;57.81;101749.09;5245107;28;20136;-67
2022/04/02 10:59:20;;;;;;;5.28;3.80;;;;;;;5.39;57.63;101764.38;5248205;28;20112;-68
2022/04/02 11:01:55;;;;;;;25.38;17.83;;;;;;;5.28;57.86;101762.41;5242026;28;20052;-67
2022/04/02 11:04:39;;;;;;;9.27;5.07;;;;;;;5.34;58.15;101755.97;5241362;28;20029;-68
2022/04/02 11:07:10;;;;;;;5.35;3.65;;;;;;;5.37;58.59;101764.63;5248674;28;20033;-67
2022/04/02 11:09:43;;;;;;;7.35;5.57;;;;;;;5.41;58.01;101759.47;5262592;28;20036;-68
2022/04/02 11:12:15;;;;;;;6.25;4.20;;;;;;;5.21;58.84;101760.56;5250236;28;20053;-67
2022/04/02 11:14:51;;;;;;;8.60;4.88;;;;;;;5.32;57.95;101755.38;5244047;28;20048;-67
2022/04/02 11:17:26;;;;;;;6.47;3.97;;;;;;;5.32;58.31;101764.47;5241368;28;20029;-66
2022/04/02 11:20:11;;;;;;;6.68;3.42;;;;;;;5.27;58.73;101755.25;5241249;28;20044;-67
2022/04/02 11:22:51;;;;;;;6.55;4.28;;;;;;;5.30;58.08;101749.28;5241839;28;20430;-67
2022/04/02 11:25:31;;;;;;;6.38;4.13;;;;;;;5.33;58.46;101755.13;5252522;28;20383;-67
2022/04/02 11:28:11;;;;;;;5.70;4.00;;;;;;;5.36;56.21;101751.09;5245714;28;20103;-67
2022/04/02 11:30:45;;;;;;;4.72;3.55;;;;;;;5.43;55.39;101749.91;5248031;28;20025;-67
2022/04/02 11:33:18;;;;;;;4.95;4.00;;;;;;;5.56;56.00;101754.38;5242344;28;20048;-67
2022/04/02 11:35:52;;;;;;;5.07;3.63;;;;;;;5.49;54.02;101755.56;5241128;28;20386;-67
2022/04/02 11:38:35;;;;;;;6.07;3.80;;;;;;;5.55;54.14;101741.72;5241700;28;20033;-68
2022/04/02 11:41:23;;;;;;;4.15;3.38;;;;;;;5.60;54.32;101757.53;5257854;28;20021;-67
2022/04/02 11:44:05;;;;;;;6.60;3.75;;;;;;;5.72;53.45;101768.56;5261969;28;20449;-66
2022/04/02 11:47:03;;;;;;;4.25;3.78;;;;;;;5.65;53.57;101758.50;5246501;28;20477;-68
2022/04/02 11:49:40;;;;;;;5.10;3.10;;;;;;;5.53;50.63;101757.63;5252607;28;20065;-68
2022/04/02 11:52:14;;;;;;;6.32;3.90;;;;;;;5.64;51.44;101765.06;5244305;28;20037;-68
2022/04/02 11:54:48;;;;;;;4.50;3.38;;;;;;;5.66;50.41;101765.66;5240818;28;20032;-68
2022/04/02 11:57:20;;;;;;;18.35;13.35;;;;;;;5.69;49.14;101763.53;5239345;28;20393;-69
2022/04/02 11:59:57;;;;;;;6.88;4.30;;;;;;;5.81;48.81;101756.16;5259026;28;20030;-68
2022/04/02 12:02:46;;;;;;;3.40;2.90;;;;;;;5.98;48.65;101762.69;5248636;28;22002;-67
2022/04/02 12:05:20;;;;;;;4.57;2.95;;;;;;;6.16;47.48;101756.25;5243982;28;20034;-65
2022/04/02 12:07:51;;;;;;;5.30;3.13;;;;;;;6.37;48.53;101754.81;5260648;28;20492;-68
2022/04/02 12:10:25;;;;;;;4.38;2.70;;;;;;;6.45;46.56;101759.13;5251524;28;20095;-66
2022/04/02 12:12:58;;;;;;;5.82;2.88;;;;;;;6.17;44.24;101763.41;5240353;28;20476;-68
2022/04/02 12:15:30;;;;;;;7.93;5.78;;;;;;;6.21;45.06;101766.53;5240099;28;20041;-68
2022/04/02 12:18:08;;;;;;;6.20;3.75;;;;;;;6.24;46.08;101768.84;5247479;28;20040;-68
2022/04/02 12:20:40;;;;;;;5.05;3.25;;;;;;;6.17;46.22;101768.09;5247822;28;20033;-68
2022/04/02 12:23:14;;;;;;;3.15;2.80;;;;;;;6.34;46.78;101763.56;5260142;28;20029;-68
2022/04/02 12:25:59;;;;;;;4.40;2.70;;;;;;;6.58;46.37;101753.38;5261800;28;20109;-67
2022/04/02 12:28:33;;;;;;;5.68;3.20;;;;;;;6.70;45.20;101753.38;5260825;28;20025;-68
2022/04/02 12:31:10;;;;;;;3.42;2.55;;;;;;;6.88;43.88;101747.69;5255825;28;20047;-68
2022/04/02 12:33:51;;;;;;;4.38;2.72;;;;;;;7.02;44.10;101756.53;5259129;28;20051;-69
2022/04/02 12:36:33;;;;;;;7.43;3.80;;;;;;;7.12;44.01;101755.91;5243182;28;20021;-68
2022/04/02 12:39:08;;;;;;;4.95;3.58;;;;;;;7.16;42.84;101740.56;5250234;28;20074;-68
2022/04/02 12:41:47;;;;;;;5.75;3.03;;;;;;;7.07;43.92;101753.88;5258149;28;20033;-69
2022/04/02 12:44:20;;;;;;;5.28;2.67;;;;;;;6.89;43.20;101762.31;5242301;28;20433;-68
2022/04/02 12:46:52;;;;;;;7.57;2.20;;;;;;;6.87;42.26;101758.94;5253024;28;20036;-68
2022/04/02 12:49:31;;;;;;;6.72;3.55;;;;;;;6.81;42.86;101766.28;5264137;28;20025;-67
2022/04/02 12:52:26;;;;;;;3.33;2.38;;;;;;;6.68;41.77;101759.09;5265248;28;20083;-67
2022/04/02 12:54:58;;;;;;;3.55;2.50;;;;;;;6.83;41.98;101758.59;5248378;28;20091;-67
2022/04/02 12:57:31;;;;;;;4.53;3.25;;;;;;;7.08;41.32;101752.81;5254385;28;20052;-69
2022/04/02 13:00:03;;;;;;;9.38;7.10;;;;;;;7.21;41.39;101745.31;5252386;28;20024;-68
2022/04/02 13:02:40;;;;;;;6.38;5.32;;;;;;;7.10;41.73;101749.78;5242808;28;20025;-68
2022/04/02 13:05:13;;;;;;;6.07;2.50;;;;;;;6.97;41.93;101746.22;5250382;28;20021;-68
2022/04/02 13:08:01;;;;;;;4.55;2.28;;;;;;;7.04;42.30;101748.84;5263389;28;20108;-68
2022/04/02 13:10:40;;;;;;;5.72;4.30;;;;;;;7.10;44.25;101749.78;5249823;28;20029;-68
2022/04/02 13:13:14;;;;;;;3.38;2.45;;;;;;;6.86;42.57;101758.13;5257642;28;20028;-68
2022/04/02 13:15:52;;;;;;;4.05;3.20;;;;;;;6.88;42.51;101760.66;5262012;28;20492;-68
2022/04/02 13:21:18;;;;;;;6.07;4.85;;;;;;;6.78;42.48;101766.78;5251821;28;20477;-71
2022/04/02 13:24:15;;;;;;;5.15;2.53;;;;;;;6.83;42.42;101760.53;5264132;28;20483;-69
2022/04/02 13:27:06;;;;;;;6.13;3.40;;;;;;;6.92;43.19;101762.66;5253391;28;20025;-67
2022/04/02 13:29:51;;;;;;;4.40;3.22;;;;;;;6.94;42.08;101759.66;5253049;28;20052;-68
2022/04/02 13:32:43;;;;;;;75.57;32.07;;;;;;;7.25;42.89;101761.13;5263159;28;20025;-67
2022/04/02 13:35:40;;;;;;;5.35;4.55;;;;;;;7.24;41.00;101764.97;5255615;28;20124;-67
2022/04/02 13:38:34;;;;;;;4.75;3.70;;;;;;;7.22;41.12;101750.59;5262474;28;20137;-68
2022/04/02 13:41:11;;;;;;;8.00;5.03;;;;;;;7.21;41.58;101770.13;5263008;28;20392;-69
2022/04/02 13:43:54;;;;;;;4.05;3.05;;;;;;;7.17;43.09;101764.28;5259639;28;20883;-69
2022/04/02 13:46:35;;;;;;;3.83;2.90;;;;;;;7.05;44.07;101763.47;5243313;28;20396;-68
2022/04/02 13:49:09;;;;;;;5.68;2.50;;;;;;;6.87;45.68;101765.31;5257335;28;20140;-68
2022/04/02 13:51:52;;;;;;;3.28;2.72;;;;;;;6.87;44.54;101761.72;5245023;28;20116;-68
2022/04/02 13:54:35;;;;;;;5.88;2.78;;;;;;;6.75;44.99;101759.00;5249346;28;20052;-68
2022/04/02 13:57:12;;;;;;;4.80;2.70;;;;;;;6.84;45.64;101754.75;5252439;28;20080;-70
2022/04/02 14:00:09;;;;;;;13.68;10.43;;;;;;;7.03;45.32;101760.09;5256360;28;20461;-70
2022/04/02 14:02:45;;;;;;;;;;;;;;;7.35;45.21;101755.81;5249055;28;20032;-68
2022/04/02 14:05:28;;;;;;;4.03;3.13;;;;;;;7.35;45.51;101763.25;5263427;28;19913;-68
2022/04/02 14:08:06;;;;;;;6.00;4.65;;;;;;;7.22;44.76;101772.66;5262762;28;20040;-68
2022/04/02 14:10:43;;;;;;;4.03;2.60;;;;;;;7.49;45.00;101766.56;5263134;28;20445;-68
2022/04/02 14:13:19;;;;;;;5.85;4.55;;;;;;;7.25;44.40;101776.84;5263101;28;20037;-69
2022/04/02 14:15:52;;;;;;;9.98;6.07;;;;;;;7.48;50.08;101759.38;5254722;28;20034;-71
2022/04/02 14:18:29;;;;;;;10.65;7.38;;;;;;;7.49;47.44;101769.31;5251037;28;20044;-70
2022/04/02 14:21:04;;;;;;;14.13;7.50;;;;;;;7.72;49.98;101760.09;5261700;28;20094;-70
2022/04/02 14:23:39;;;;;;;;;;;;;;;7.77;50.10;101769.31;5263809;28;20033;-69
2022/04/02 14:26:48;;;;;;;4.80;3.20;;;;;;;7.61;49.55;101767.34;5262796;28;20347;-69
2022/04/02 14:29:37;;;;;;;3.72;2.90;;;;;;;7.59;48.25;101772.28;5262248;28;20240;-70
2022/04/02 14:32:14;;;;;;;6.65;4.20;;;;;;;7.70;47.46;101773.31;5251615;28;20112;-68
2022/04/02 14:34:58;;;;;;;4.38;2.60;;;;;;;7.49;45.25;101772.94;5247835;28;20032;-68
2022/04/02 14:38:00;;;;;;;6.03;3.40;;;;;;;7.59;47.24;101762.09;5257060;28;20488;-68
2022/04/02 14:41:02;;;;;;;6.38;3.95;;;;;;;7.60;45.97;101774.78;5242462;28;20516;-68
2022/04/02 14:44:04;;;;;;;15.02;11.32;;;;;;;7.59;43.89;101767.59;5251615;28;20028;-69
2022/04/02 14:46:57;;;;;;;3.88;2.70;;;;;;;7.83;43.00;101773.00;5251498;28;20071;-69
2022/04/02 14:49:47;;;;;;;6.25;3.13;;;;;;;7.94;42.59;101761.03;5261976;28;20530;-69
2022/04/02 14:52:42;;;;;;;5.70;2.70;;;;;;;8.51;42.82;101756.44;5245550;28;20025;-68
2022/04/02 14:55:35;;;;;;;17.73;11.40;;;;;;;8.51;41.77;101768.34;5252746;28;20037;-67
2022/04/02 14:58:34;;;;;;;26.58;17.20;;;;;;;8.50;40.72;101761.16;5262234;28;20077;-67
2022/04/02 15:01:27;;;;;;;5.57;3.10;;;;;;;8.39;41.22;101770.34;5260892;28;20037;-69
2022/04/02 15:04:52;;;;;;;5.05;2.92;;;;;;;8.38;41.79;101765.91;5261828;28;20108;-67
2022/04/02 15:07:53;;;;;;;4.35;3.42;;;;;;;8.07;41.35;101770.91;5262344;28;20025;-67
2022/04/02 15:10:36;;;;;;;3.88;2.60;;;;;;;7.82;41.75;101772.16;5249086;28;20033;-69
2022/04/02 15:13:08;;;;;;;3.38;2.35;;;;;;;7.66;42.37;101778.47;5248643;28;20029;-69
2022/04/02 15:15:45;;;;;;;12.55;6.85;;;;;;;7.58;42.49;101774.19;5262523;28;20394;-68
2022/04/02 15:18:20;;;;;;;26.85;14.15;;;;;;;7.58;43.69;101781.66;5261518;28;20443;-69
2022/04/02 15:21:12;;;;;;;10.15;4.90;;;;;;;7.48;43.80;101790.56;5261786;28;20120;-69
2022/04/02 15:24:11;;;;;;;4.32;2.67;;;;;;;7.40;43.51;101786.28;5245478;28;20436;-70
2022/04/02 15:26:47;;;;;;;6.97;2.72;;;;;;;7.15;43.52;101785.75;5248616;28;20048;-69
2022/04/02 15:29:33;;;;;;;4.10;2.60;;;;;;;7.16;43.81;101790.22;5249967;28;20132;-70
2022/04/02 15:32:18;;;;;;;4.43;2.50;;;;;;;7.19;44.14;101795.22;5240462;28;20465;-69
2022/04/02 15:34:54;;;;;;;3.33;2.35;;;;;;;7.34;49.90;101791.94;5242623;28;20037;-76
2022/04/02 15:37:34;;;;;;;3.75;2.53;;;;;;;7.16;44.60;101798.47;5262170;28;20364;-69
2022/04/02 15:40:18;;;;;;;9.80;5.30;;;;;;;7.51;51.42;101816.84;5248439;28;20044;-72
2022/04/02 15:42:53;;;;;;;5.47;2.60;;;;;;;7.10;48.75;101816.00;5252838;28;20421;-73
2022/04/02 15:45:27;;;;;;;4.15;2.35;;;;;;;6.92;50.91;101817.81;5241039;28;20541;-74
2022/04/02 15:48:03;;;;;;;3.80;2.72;;;;;;;6.59;51.63;101823.09;5241547;28;20435;-73
2022/04/02 15:50:35;;;;;;;11.23;8.40;;;;;;;6.47;52.92;101826.69;5243758;28;20111;-73
2022/04/02 15:53:10;;;;;;;6.07;3.47;;;;;;;6.58;53.51;101821.44;5261239;28;20032;-72
2022/04/02 15:55:50;;;;;;;3.97;3.10;;;;;;;6.33;54.28;101825.25;5251867;28;20029;-72
2022/04/02 15:58:28;;;;;;;3.90;2.17;;;;;;;6.20;54.45;101836.47;5250787;28;20046;-77
2022/04/02 16:01:02;;;;;;;3.47;2.92;;;;;;;6.33;53.95;101830.75;5245146;28;20025;-77
2022/04/02 16:03:33;;;;;;;17.10;11.20;;;;;;;6.35;54.86;101834.13;5246159;28;20041;-78
2022/04/02 16:06:17;;;;;;;4.03;2.50;;;;;;;6.37;54.41;101840.22;5241738;28;20033;-78
2022/04/02 16:08:59;;;;;;;3.10;2.70;;;;;;;6.20;54.85;101847.50;5259153;28;20041;-77
2022/04/02 16:11:34;;;;;;;5.05;4.28;;;;;;;6.11;54.75;101852.53;5261757;28;20498;-73
2022/04/02 16:14:13;;;;;;;6.22;3.22;;;;;;;6.18;54.67;101849.63;5255993;28;20469;-77
2022/04/02 16:16:48;;;;;;;3.72;2.83;;;;;;;6.16;53.96;101849.03;5261790;28;20036;-75
2022/04/02 16:19:40;;;;;;;5.13;3.17;;;;;;;6.32;54.48;101845.63;5247153;28;20033;-75
2022/04/02 16:22:21;;;;;;;3.67;2.83;;;;;;;6.30;54.77;101853.28;5245919;28;20033;-75
2022/04/02 16:25:00;;;;;;;5.25;2.72;;;;;;;6.36;53.89;101844.03;5263899;28;20502;-75
2022/04/02 16:27:32;;;;;;;4.75;2.70;;;;;;;6.23;53.75;101847.03;5244552;28;20453;-75
2022/04/02 16:30:10;;;;;;;3.78;2.70;;;;;;;6.21;53.41;101854.66;5244381;28;20065;-75
2022/04/02 16:32:46;;;;;;;4.28;3.03;;;;;;;6.21;53.23;101852.78;5245740;28;20036;-76
2022/04/02 16:35:17;;;;;;;4.68;2.97;;;;;;;6.27;53.47;101859.25;5255513;28;20132;-73
2022/04/02 16:38:03;;;;;;;5.88;3.40;;;;;;;6.26;53.37;101852.06;5253496;28;20056;-74
2022/04/02 16:40:35;;;;;;;3.97;2.95;;;;;;;6.31;53.56;101863.19;5264773;28;20039;-74
2022/04/02 16:43:06;;;;;;;3.70;2.85;;;;;;;6.30;52.65;101865.13;5265386;28;20463;-75
2022/04/02 16:45:38;;;;;;;4.90;3.95;;;;;;;6.39;52.65;101873.91;5253225;28;20057;-76
2022/04/02 16:48:10;;;;;;;3.72;2.65;;;;;;;6.30;53.24;101872.56;5243970;28;20037;-76
2022/04/02 16:50:41;;;;;;;3.58;2.47;;;;;;;6.29;52.20;101874.47;5253749;28;20507;-76
2022/04/02 16:53:23;;;;;;;4.20;2.53;;;;;;;6.32;51.66;101876.75;5248974;28;20078;-75
2022/04/02 16:55:55;;;;;;;12.05;8.68;;;;;;;6.26;50.46;101880.47;5252969;28;20061;-75
2022/04/02 16:58:27;;;;;;;5.88;3.08;;;;;;;6.21;50.44;101871.19;5244220;28;20135;-75
2022/04/02 17:00:59;;;;;;;4.70;2.42;;;;;;;6.36;50.53;101876.28;5254807;28;20072;-76
2022/04/02 17:03:31;;;;;;;4.10;2.58;;;;;;;6.27;50.25;101873.03;5259600;28;20369;-75
2022/04/02 17:06:02;;;;;;;3.90;2.83;;;;;;;6.15;50.42;101873.00;5264284;28;20043;-76
2022/04/02 17:08:33;;;;;;;3.97;2.60;;;;;;;6.23;50.16;101871.81;5258820;28;20040;-76
2022/04/02 17:11:05;;;;;;;4.38;3.45;;;;;;;6.22;51.10;101884.75;5256085;28;20476;-75
2022/04/02 17:13:36;;;;;;;3.40;2.30;;;;;;;6.16;50.30;101884.84;5258664;28;20025;-75
2022/04/02 17:16:07;;;;;;;5.85;2.85;;;;;;;6.23;50.68;101891.09;5256833;28;20068;-75
2022/04/02 17:18:39;;;;;;;4.33;2.70;;;;;;;6.17;50.44;101886.53;5251881;28;20074;-76
2022/04/02 17:21:12;;;;;;;3.28;2.47;;;;;;;6.01;50.78;101888.88;5244425;28;20276;-75
2022/04/02 17:23:43;;;;;;;5.28;3.28;;;;;;;6.08;51.30;101894.28;5242842;28;20124;-75
2022/04/02 17:26:26;;;;;;;6.72;3.75;;;;;;;5.98;52.00;101894.88;5244600;28;20492;-73
2022/04/02 17:28:57;;;;;;;4.97;2.70;;;;;;;6.00;52.35;101898.19;5257123;28;20041;-74
